createdAt,value
2019-05-06T00:01:24.259Z,5.87
2019-05-06T00:03:54.187Z,5.84
2019-05-06T00:06:23.656Z,5.83
2019-05-06T00:08:54.590Z,5.80
2019-05-06T00:11:23.850Z,5.76
2019-05-06T00:13:54.307Z,5.73
2019-05-06T00:16:23.782Z,5.70
2019-05-06T00:18:54.138Z,5.66
2019-05-06T00:21:24.422Z,5.63
2019-05-06T00:23:54.602Z,5.62
2019-05-06T00:26:40.937Z,5.63
2019-05-06T00:29:11.098Z,5.62
2019-05-06T00:31:39.528Z,5.61
2019-05-06T00:34:08.027Z,5.59
2019-05-06T00:36:36.700Z,5.57
2019-05-06T00:39:26.996Z,5.55
2019-05-06T00:42:00.073Z,5.52
2019-05-06T00:44:28.494Z,5.52
2019-05-06T00:46:56.954Z,5.50
2019-05-06T00:49:25.435Z,5.48
2019-05-06T00:51:55.048Z,5.49
2019-05-06T00:54:27.781Z,5.48
2019-05-06T00:56:56.644Z,5.48
2019-05-06T00:59:25.075Z,5.44
2019-05-06T01:01:53.980Z,5.42
2019-05-06T01:04:24.511Z,5.39
2019-05-06T01:06:54.491Z,5.37
2019-05-06T01:09:23.960Z,5.36
2019-05-06T01:11:54.606Z,5.35
2019-05-06T01:14:30.953Z,5.34
2019-05-06T01:16:59.520Z,5.32
2019-05-06T01:19:27.955Z,5.29
2019-05-06T01:21:56.401Z,5.25
2019-05-06T01:24:24.845Z,5.23
2019-05-06T01:26:53.745Z,5.22
2019-05-06T01:29:24.052Z,5.21
2019-05-06T01:31:54.455Z,5.19
2019-05-06T01:34:24.517Z,5.16
2019-05-06T01:36:54.568Z,5.13
2019-05-06T01:39:39.659Z,5.12
2019-05-06T01:42:09.728Z,5.11
2019-05-06T01:44:38.166Z,5.12
2019-05-06T01:47:06.838Z,5.12
2019-05-06T01:49:35.249Z,5.12
2019-05-06T01:52:04.333Z,5.13
2019-05-06T01:54:34.354Z,5.12
2019-05-06T01:57:04.446Z,5.10
2019-05-06T01:59:34.072Z,5.09
2019-05-06T02:02:04.242Z,5.09
2019-05-06T02:04:33.791Z,5.07
2019-05-06T02:07:03.762Z,5.06
2019-05-06T02:09:34.230Z,5.04
2019-05-06T02:12:04.557Z,4.99
2019-05-06T02:14:34.115Z,4.96
2019-05-06T02:17:03.655Z,4.96
2019-05-06T02:19:32.203Z,4.96
2019-05-06T02:22:04.326Z,4.93
2019-05-06T02:24:37.422Z,4.89
2019-05-06T02:27:06.608Z,4.88
2019-05-06T02:29:36.671Z,4.85
2019-05-06T02:32:24.416Z,4.83
2019-05-06T02:35:00.824Z,4.83
2019-05-06T02:37:46.044Z,4.83
2019-05-06T02:40:18.975Z,4.84
2019-05-06T02:42:47.991Z,4.86
2019-05-06T02:45:16.680Z,4.84
2019-05-06T02:47:55.980Z,4.83
2019-05-06T02:50:42.732Z,4.80
2019-05-06T02:53:13.375Z,4.80
2019-05-06T02:55:43.069Z,4.79
2019-05-06T02:58:14.587Z,4.76
2019-05-06T03:00:43.021Z,4.70
2019-05-06T03:03:13.986Z,4.67
2019-05-06T03:05:43.945Z,4.65
2019-05-06T03:08:13.429Z,4.61
2019-05-06T03:10:44.125Z,4.57
2019-05-06T03:13:14.297Z,4.55
2019-05-06T03:15:43.594Z,4.49
2019-05-06T03:18:14.722Z,4.44
2019-05-06T03:20:58.358Z,4.39
2019-05-06T03:23:43.372Z,4.39
2019-05-06T03:26:13.738Z,4.41
2019-05-06T03:28:44.043Z,4.42
2019-05-06T03:31:16.118Z,4.43
2019-05-06T03:34:03.845Z,4.46
2019-05-06T03:36:23.579Z,4.49
2019-05-06T03:38:43.254Z,4.49
2019-05-06T03:41:13.871Z,4.51
2019-05-06T03:43:43.523Z,4.53
2019-05-06T03:46:14.280Z,4.57
2019-05-06T03:48:53.600Z,4.59
2019-05-06T03:51:23.302Z,4.62
2019-05-06T03:53:56.316Z,4.63
2019-05-06T03:56:23.989Z,4.66
2019-05-06T03:58:53.728Z,4.70
2019-05-06T04:01:24.128Z,4.71
2019-05-06T04:03:56.954Z,4.74
2019-05-06T04:06:24.211Z,4.79
2019-05-06T04:08:53.683Z,4.84
2019-05-06T04:11:23.824Z,4.88
2019-05-06T04:13:53.837Z,4.94
2019-05-06T04:16:36.172Z,5.00
2019-05-06T04:19:23.807Z,5.08
2019-05-06T04:21:56.757Z,5.19
2019-05-06T04:24:35.458Z,5.28
2019-05-06T04:27:25.263Z,5.38
2019-05-06T04:29:54.509Z,5.49
2019-05-06T04:32:23.859Z,5.57
2019-05-06T04:34:53.574Z,5.63
2019-05-06T04:37:24.223Z,5.68
2019-05-06T04:39:53.529Z,5.75
2019-05-06T04:42:26.328Z,5.83
2019-05-06T04:44:53.346Z,5.92
2019-05-06T04:47:24.191Z,6.02
2019-05-06T04:49:53.083Z,6.12
2019-05-06T04:52:22.807Z,6.17
2019-05-06T04:54:53.404Z,6.20
2019-05-06T04:57:23.828Z,6.25
2019-05-06T04:59:54.186Z,6.31
2019-05-06T05:02:23.135Z,6.37
2019-05-06T05:04:53.216Z,6.44
2019-05-06T05:07:22.492Z,6.48
2019-05-06T05:09:53.634Z,6.52
2019-05-06T05:12:39.169Z,6.54
2019-05-06T05:15:12.431Z,6.51
2019-05-06T05:17:45.497Z,6.49
2019-05-06T05:20:13.999Z,6.45
2019-05-06T05:22:42.500Z,6.47
2019-05-06T05:25:12.276Z,6.48
2019-05-06T05:27:42.104Z,6.52
2019-05-06T05:30:12.434Z,6.57
2019-05-06T05:32:42.791Z,6.70
2019-05-06T05:35:12.753Z,6.90
2019-05-06T05:37:41.992Z,7.15
2019-05-06T05:40:12.999Z,7.35
2019-05-06T05:42:43.477Z,7.52
2019-05-06T05:45:12.916Z,7.58
2019-05-06T05:47:42.519Z,7.62
2019-05-06T05:50:18.597Z,7.63
2019-05-06T05:52:47.054Z,7.64
2019-05-06T05:55:15.476Z,7.65
2019-05-06T05:57:44.089Z,7.65
2019-05-06T06:00:13.054Z,7.69
2019-05-06T06:02:43.658Z,7.78
2019-05-06T06:05:12.498Z,7.86
2019-05-06T06:07:42.224Z,7.90
2019-05-06T06:10:22.589Z,7.90
2019-05-06T06:12:52.868Z,7.88
2019-05-06T06:15:25.977Z,7.84
2019-05-06T06:17:59.531Z,7.82
2019-05-06T06:20:46.068Z,7.83
2019-05-06T06:23:16.264Z,7.87
2019-05-06T06:25:44.708Z,7.95
2019-05-06T06:28:13.125Z,7.97
2019-05-06T06:30:49.125Z,8.01
2019-05-06T06:33:17.839Z,8.06
2019-05-06T06:35:54.155Z,8.12
2019-05-06T06:38:32.262Z,8.13
2019-05-06T06:41:02.553Z,8.16
2019-05-06T06:43:32.425Z,8.24
2019-05-06T06:46:02.509Z,8.29
2019-05-06T06:48:32.033Z,8.30
2019-05-06T06:51:03.278Z,8.34
2019-05-06T06:53:32.723Z,8.43
2019-05-06T06:56:03.196Z,8.55
2019-05-06T06:58:33.255Z,8.65
2019-05-06T07:01:03.385Z,8.70
2019-05-06T07:03:39.942Z,8.67
2019-05-06T07:06:12.749Z,8.63
2019-05-06T07:08:42.620Z,8.65
2019-05-06T07:11:13.061Z,8.67
2019-05-06T07:13:44.525Z,8.70
2019-05-06T07:16:12.958Z,8.72
2019-05-06T07:18:42.732Z,8.78
2019-05-06T07:21:14.008Z,8.85
2019-05-06T07:23:42.681Z,8.95
2019-05-06T07:26:12.804Z,9.05
2019-05-06T07:28:43.648Z,9.10
2019-05-06T07:31:21.907Z,9.14
2019-05-06T07:33:42.863Z,9.19
2019-05-06T07:36:13.079Z,9.31
2019-05-06T07:38:43.405Z,9.49
2019-05-06T07:41:19.793Z,9.67
2019-05-06T07:43:59.037Z,9.91
2019-05-06T07:46:33.099Z,10.17
2019-05-06T07:49:03.333Z,10.38
2019-05-06T07:51:32.592Z,10.42
2019-05-06T07:54:02.793Z,10.31
2019-05-06T07:56:32.206Z,10.16
2019-05-06T07:59:09.536Z,10.02
2019-05-06T08:01:43.844Z,9.89
2019-05-06T08:04:12.829Z,9.74
2019-05-06T08:06:42.737Z,9.62
2019-05-06T08:09:12.994Z,9.53
2019-05-06T08:11:42.241Z,9.40
2019-05-06T08:14:12.956Z,9.28
2019-05-06T08:16:46.491Z,9.19
2019-05-06T08:19:14.916Z,9.16
2019-05-06T08:21:45.018Z,9.19
2019-05-06T08:24:13.440Z,9.29
2019-05-06T08:26:42.830Z,9.46
2019-05-06T08:29:12.176Z,9.70
2019-05-06T08:31:43.064Z,9.91
2019-05-06T08:34:12.281Z,10.09
2019-05-06T08:36:43.260Z,10.28
2019-05-06T08:39:13.089Z,10.48
2019-05-06T08:41:42.306Z,10.61
2019-05-06T08:44:12.755Z,10.68
2019-05-06T08:46:43.242Z,10.79
2019-05-06T08:49:12.285Z,10.89
2019-05-06T08:51:42.800Z,10.89
2019-05-06T08:54:32.487Z,10.95
2019-05-06T08:57:02.561Z,11.00
2019-05-06T08:59:32.114Z,11.02
2019-05-06T09:02:03.244Z,11.10
2019-05-06T09:04:32.127Z,11.23
2019-05-06T09:07:02.729Z,11.42
2019-05-06T09:09:32.554Z,11.56
2019-05-06T09:12:02.653Z,11.72
2019-05-06T09:14:32.635Z,11.73
2019-05-06T09:17:02.914Z,11.61
2019-05-06T09:19:33.172Z,11.47
2019-05-06T09:22:02.528Z,11.27
2019-05-06T09:24:32.084Z,11.02
2019-05-06T09:27:03.113Z,10.69
2019-05-06T09:29:36.161Z,10.37
2019-05-06T09:32:06.230Z,10.06
2019-05-06T09:34:52.673Z,9.83
2019-05-06T09:37:24.067Z,9.73
2019-05-06T09:39:53.483Z,9.71
2019-05-06T09:42:23.321Z,9.76
2019-05-06T09:44:54.212Z,9.84
2019-05-06T09:47:24.005Z,9.98
2019-05-06T09:49:53.263Z,10.20
2019-05-06T09:52:23.119Z,10.41
2019-05-06T09:54:59.739Z,10.46
2019-05-06T09:57:45.932Z,10.44
2019-05-06T10:00:16.989Z,10.38
2019-05-06T10:02:45.432Z,10.30
2019-05-06T10:05:14.015Z,10.23
2019-05-06T10:07:42.530Z,10.10
2019-05-06T10:10:11.278Z,10.00
2019-05-06T10:12:41.957Z,9.98
2019-05-06T10:15:12.717Z,10.06
2019-05-06T10:17:42.902Z,10.26
2019-05-06T10:20:12.770Z,10.43
2019-05-06T10:22:43.094Z,10.60
2019-05-06T10:25:13.428Z,10.74
2019-05-06T10:27:43.816Z,10.94
2019-05-06T10:30:14.561Z,11.21
2019-05-06T10:32:47.306Z,11.53
2019-05-06T10:35:16.327Z,11.79
2019-05-06T10:37:59.831Z,12.03
2019-05-06T10:40:48.613Z,12.36
2019-05-06T10:43:29.033Z,12.60
2019-05-06T10:46:00.885Z,12.66
2019-05-06T10:48:27.906Z,12.66
2019-05-06T10:51:04.433Z,12.62
2019-05-06T10:53:33.077Z,12.48
2019-05-06T10:56:03.222Z,12.20
2019-05-06T10:58:32.656Z,11.83
2019-05-06T11:01:12.570Z,11.35
2019-05-06T11:03:42.005Z,10.88
2019-05-06T11:06:12.970Z,10.70
2019-05-06T11:08:42.070Z,10.79
2019-05-06T11:11:17.049Z,11.03
2019-05-06T11:13:43.829Z,11.25
2019-05-06T11:16:12.981Z,11.28
2019-05-06T11:18:42.641Z,11.17
2019-05-06T11:21:12.724Z,10.99
2019-05-06T11:23:41.884Z,10.74
2019-05-06T11:26:10.439Z,10.50
2019-05-06T11:28:42.592Z,10.37
2019-05-06T11:31:29.244Z,10.38
2019-05-06T11:34:12.611Z,10.53
2019-05-06T11:36:52.520Z,10.74
2019-05-06T11:39:23.334Z,10.96
2019-05-06T11:42:06.284Z,11.24
2019-05-06T11:44:23.973Z,11.59
2019-05-06T11:46:52.370Z,12.01
2019-05-06T11:49:23.251Z,12.28
2019-05-06T11:51:51.645Z,12.41
2019-05-06T11:54:23.649Z,12.34
2019-05-06T11:56:54.336Z,12.16
2019-05-06T11:59:22.801Z,11.90
2019-05-06T12:01:53.541Z,11.59
2019-05-06T12:04:23.013Z,11.21
2019-05-06T12:06:57.275Z,10.88
2019-05-06T12:09:22.407Z,10.66
2019-05-06T12:11:52.826Z,10.60
2019-05-06T12:14:22.661Z,10.69
2019-05-06T12:16:54.809Z,10.91
2019-05-06T12:19:22.523Z,11.12
2019-05-06T12:21:51.385Z,11.19
2019-05-06T12:24:19.886Z,11.11
2019-05-06T12:26:48.308Z,11.02
2019-05-06T12:29:16.939Z,10.95
2019-05-06T12:31:47.057Z,10.92
2019-05-06T12:34:15.743Z,10.97
2019-05-06T12:36:47.404Z,11.08
2019-05-06T12:39:19.655Z,11.38
2019-05-06T12:42:04.843Z,11.81
2019-05-06T12:44:34.993Z,12.05
2019-05-06T12:47:13.405Z,12.13
2019-05-06T12:49:42.606Z,12.17
2019-05-06T12:52:12.376Z,12.22
2019-05-06T12:54:42.997Z,12.25
2019-05-06T12:57:12.584Z,12.20
2019-05-06T12:59:42.498Z,12.14
2019-05-06T13:02:13.230Z,12.04
2019-05-06T13:04:51.744Z,11.90
2019-05-06T13:07:13.421Z,11.75
2019-05-06T13:09:44.982Z,11.63
2019-05-06T13:12:13.965Z,11.57
2019-05-06T13:14:43.062Z,11.55
2019-05-06T13:17:13.439Z,11.59
2019-05-06T13:19:42.865Z,11.63
2019-05-06T13:22:13.570Z,11.73
2019-05-06T13:24:42.284Z,11.80
2019-05-06T13:27:12.672Z,11.92
2019-05-06T13:29:42.906Z,12.01
2019-05-06T13:32:13.270Z,12.13
2019-05-06T13:34:42.435Z,12.22
2019-05-06T13:37:12.839Z,12.27
2019-05-06T13:39:43.530Z,12.19
2019-05-06T13:42:13.426Z,12.17
2019-05-06T13:44:42.555Z,12.18
2019-05-06T13:47:13.084Z,12.25
2019-05-06T13:49:52.353Z,12.28
2019-05-06T13:52:22.938Z,12.29
2019-05-06T13:54:52.989Z,12.32
2019-05-06T13:57:21.567Z,12.39
2019-05-06T13:59:52.963Z,12.51
2019-05-06T14:02:30.655Z,12.47
2019-05-06T14:04:59.495Z,12.39
2019-05-06T14:07:27.940Z,12.22
2019-05-06T14:09:56.356Z,12.09
2019-05-06T14:12:24.840Z,12.03
2019-05-06T14:14:53.267Z,11.97
2019-05-06T14:17:22.490Z,11.92
2019-05-06T14:19:53.134Z,11.85
2019-05-06T14:22:23.199Z,11.80
2019-05-06T14:25:00.066Z,11.81
2019-05-06T14:27:28.516Z,11.77
2019-05-06T14:29:58.596Z,11.78
2019-05-06T14:32:27.079Z,11.80
2019-05-06T14:34:55.613Z,11.82
2019-05-06T14:37:24.041Z,11.89
2019-05-06T14:39:59.229Z,11.90
2019-05-06T14:42:24.696Z,11.86
2019-05-06T14:44:53.120Z,11.73
2019-05-06T14:47:26.416Z,11.63
2019-05-06T14:49:54.856Z,11.61
2019-05-06T14:52:23.790Z,11.56
2019-05-06T14:54:53.996Z,11.62
2019-05-06T14:57:23.392Z,11.74
2019-05-06T14:59:55.224Z,11.96
2019-05-06T15:02:26.097Z,12.12
2019-05-06T15:04:54.016Z,12.17
2019-05-06T15:07:22.434Z,12.09
2019-05-06T15:10:07.868Z,12.01
2019-05-06T15:12:22.878Z,11.90
2019-05-06T15:14:58.203Z,11.74
2019-05-06T15:17:26.639Z,11.64
2019-05-06T15:19:55.065Z,11.56
2019-05-06T15:22:23.591Z,11.55
2019-05-06T15:24:53.599Z,11.56
2019-05-06T15:27:22.963Z,11.67
2019-05-06T15:29:54.356Z,11.75
2019-05-06T15:32:27.552Z,11.79
2019-05-06T15:34:57.591Z,11.79
2019-05-06T15:37:27.878Z,11.69
2019-05-06T15:39:56.298Z,11.61
2019-05-06T15:42:24.747Z,11.49
2019-05-06T15:44:53.550Z,11.28
2019-05-06T15:47:22.811Z,11.10
2019-05-06T15:49:52.652Z,10.93
2019-05-06T15:52:23.506Z,10.78
2019-05-06T15:54:52.490Z,10.66
2019-05-06T15:57:22.852Z,10.59
2019-05-06T15:59:52.989Z,10.50
2019-05-06T16:02:23.344Z,10.45
2019-05-06T16:04:51.996Z,10.39
2019-05-06T16:07:24.472Z,10.34
2019-05-06T16:09:55.006Z,10.34
2019-05-06T16:12:22.058Z,10.35
2019-05-06T16:14:52.995Z,10.32
2019-05-06T16:17:23.592Z,10.33
2019-05-06T16:19:51.034Z,10.31
2019-05-06T16:22:22.394Z,10.27
2019-05-06T16:25:09.833Z,10.24
2019-05-06T16:27:38.645Z,10.25
2019-05-06T16:30:09.411Z,10.26
2019-05-06T16:32:37.874Z,10.26
2019-05-06T16:35:06.863Z,10.30
2019-05-06T16:37:35.631Z,10.31
2019-05-06T16:40:05.109Z,10.24
2019-05-06T16:42:33.660Z,10.22
2019-05-06T16:45:06.880Z,10.18
2019-05-06T16:47:44.383Z,10.13
2019-05-06T16:50:16.943Z,10.09
2019-05-06T16:52:45.826Z,10.04
2019-05-06T16:55:17.849Z,9.94
2019-05-06T16:57:52.462Z,9.90
2019-05-06T17:00:23.162Z,9.85
2019-05-06T17:02:57.893Z,9.81
2019-05-06T17:05:37.290Z,9.76
2019-05-06T17:08:05.848Z,9.74
2019-05-06T17:10:34.603Z,9.72
2019-05-06T17:13:03.164Z,9.69
2019-05-06T17:15:32.600Z,9.65
2019-05-06T17:18:03.094Z,9.61
2019-05-06T17:20:32.560Z,9.58
2019-05-06T17:23:02.843Z,9.58
2019-05-06T17:25:32.918Z,9.57
2019-05-06T17:28:03.765Z,9.55
2019-05-06T17:30:46.528Z,9.52
2019-05-06T17:33:33.422Z,9.50
2019-05-06T17:36:03.037Z,9.49
2019-05-06T17:38:33.240Z,9.47
2019-05-06T17:41:02.999Z,9.45
2019-05-06T17:43:32.979Z,9.42
2019-05-06T17:46:04.901Z,9.40
2019-05-06T17:48:43.028Z,9.36
2019-05-06T17:51:19.371Z,9.32
2019-05-06T17:53:52.508Z,9.29
2019-05-06T17:56:22.265Z,9.27
2019-05-06T17:58:52.936Z,9.23
2019-05-06T18:01:33.124Z,9.18
2019-05-06T18:04:02.296Z,9.14
2019-05-06T18:06:32.995Z,9.10
2019-05-06T18:09:02.510Z,9.08
2019-05-06T18:11:33.227Z,9.05
2019-05-06T18:14:03.785Z,9.05
2019-05-06T18:16:33.451Z,9.09
2019-05-06T18:19:03.144Z,9.10
2019-05-06T18:21:31.887Z,9.09
2019-05-06T18:24:02.353Z,9.06
2019-05-06T18:26:33.355Z,9.03
2019-05-06T18:29:02.261Z,9.01
2019-05-06T18:31:32.900Z,8.97
2019-05-06T18:34:03.255Z,8.96
2019-05-06T18:36:31.135Z,8.90
2019-05-06T18:39:00.053Z,8.88
2019-05-06T18:41:29.420Z,8.84
2019-05-06T18:43:58.124Z,8.80
2019-05-06T18:46:26.739Z,8.76
2019-05-06T18:48:55.176Z,8.71
2019-05-06T18:51:23.603Z,8.69
2019-05-06T18:53:52.527Z,8.66
2019-05-06T18:56:22.366Z,8.60
2019-05-06T18:58:53.108Z,8.52
2019-05-06T19:01:23.277Z,8.45
2019-05-06T19:03:59.648Z,8.39
2019-05-06T19:06:28.126Z,8.32
2019-05-06T19:08:58.172Z,8.27
2019-05-06T19:11:26.658Z,8.24
2019-05-06T19:13:55.582Z,8.21
2019-05-06T19:16:24.008Z,8.20
2019-05-06T19:18:52.512Z,8.19
2019-05-06T19:21:27.388Z,8.18
2019-05-06T19:23:55.826Z,8.14
2019-05-06T19:26:24.532Z,8.12
2019-05-06T19:28:53.293Z,8.10
2019-05-06T19:31:22.917Z,8.07
2019-05-06T19:33:52.634Z,8.05
2019-05-06T19:36:23.558Z,8.02
2019-05-06T19:38:51.444Z,7.97
2019-05-06T19:41:22.216Z,7.94
2019-05-06T19:43:52.254Z,7.92
2019-05-06T19:46:20.537Z,7.90
2019-05-06T19:48:49.262Z,7.87
2019-05-06T19:51:17.727Z,7.85
2019-05-06T19:53:46.190Z,7.82
2019-05-06T19:56:14.630Z,7.79
2019-05-06T19:58:43.281Z,7.72
2019-05-06T20:01:11.933Z,7.67
2019-05-06T20:03:40.300Z,7.61
2019-05-06T20:06:28.485Z,7.58
2019-05-06T20:09:02.288Z,7.53
2019-05-06T20:11:33.195Z,7.51
2019-05-06T20:14:02.131Z,7.48
2019-05-06T20:16:32.300Z,7.48
2019-05-06T20:19:02.330Z,7.48
2019-05-06T20:21:32.843Z,7.50
2019-05-06T20:24:02.362Z,7.50
2019-05-06T20:26:32.410Z,7.50
2019-05-06T20:29:02.211Z,7.51
2019-05-06T20:31:32.164Z,7.53
2019-05-06T20:34:02.236Z,7.54
2019-05-06T20:36:33.032Z,7.52
2019-05-06T20:39:02.567Z,7.51
2019-05-06T20:41:32.900Z,7.51
2019-05-06T20:44:02.670Z,7.50
2019-05-06T20:46:32.344Z,7.51
2019-05-06T20:49:02.421Z,7.51
2019-05-06T20:51:32.792Z,7.52
2019-05-06T20:54:01.208Z,7.54
2019-05-06T20:56:29.682Z,7.51
2019-05-06T20:58:58.124Z,7.50
2019-05-06T21:01:26.751Z,7.47
2019-05-06T21:03:55.227Z,7.44
2019-05-06T21:06:24.933Z,7.40
2019-05-06T21:08:53.590Z,7.35
2019-05-06T21:11:28.832Z,7.32
2019-05-06T21:13:52.240Z,7.28
2019-05-06T21:16:22.525Z,7.29
2019-05-06T21:18:52.122Z,7.30
2019-05-06T21:21:20.710Z,7.29
2019-05-06T21:23:49.369Z,7.27
2019-05-06T21:26:17.872Z,7.25
2019-05-06T21:28:46.552Z,7.19
2019-05-06T21:31:15.406Z,7.16
2019-05-06T21:33:44.076Z,7.09
2019-05-06T21:36:12.536Z,7.01
2019-05-06T21:38:42.706Z,6.94
2019-05-06T21:41:12.359Z,6.87
2019-05-06T21:43:46.946Z,6.82
2019-05-06T21:46:12.988Z,6.75
2019-05-06T21:48:42.117Z,6.69
2019-05-06T21:51:12.286Z,6.63
2019-05-06T21:53:40.813Z,6.58
2019-05-06T21:56:09.606Z,6.52
2019-05-06T21:58:38.033Z,6.47
2019-05-06T22:01:08.254Z,6.42
2019-05-06T22:03:36.832Z,6.36
2019-05-06T22:06:05.352Z,6.27
2019-05-06T22:08:33.871Z,6.23
2019-05-06T22:11:03.081Z,6.19
2019-05-06T22:13:33.271Z,6.16
2019-05-06T22:16:04.855Z,6.13
2019-05-06T22:18:32.715Z,6.09
2019-05-06T22:21:17.851Z,6.05
2019-05-06T22:23:57.103Z,6.02
2019-05-06T22:26:27.148Z,5.98
2019-05-06T22:28:56.217Z,5.92
2019-05-06T22:31:26.988Z,5.91
2019-05-06T22:33:55.666Z,5.89
2019-05-06T22:36:24.312Z,5.85
2019-05-06T22:38:53.181Z,5.81
2019-05-06T22:41:23.307Z,5.80
2019-05-06T22:43:53.165Z,5.79
2019-05-06T22:46:23.448Z,5.77
2019-05-06T22:48:54.358Z,5.73
2019-05-06T22:51:22.971Z,5.69
2019-05-06T22:53:53.285Z,5.67
2019-05-06T22:56:23.005Z,5.64
2019-05-06T22:58:52.396Z,5.61
2019-05-06T23:01:32.466Z,5.57
2019-05-06T23:04:02.086Z,5.53
2019-05-06T23:06:32.839Z,5.49
2019-05-06T23:09:02.573Z,5.47
2019-05-06T23:11:32.765Z,5.45
2019-05-06T23:14:02.770Z,5.46
2019-05-06T23:16:33.079Z,5.47
2019-05-06T23:19:02.176Z,5.45
2019-05-06T23:21:30.655Z,5.43
2019-05-06T23:23:59.098Z,5.40
2019-05-06T23:26:27.663Z,5.38
2019-05-06T23:28:56.077Z,5.36
2019-05-06T23:31:24.770Z,5.33
2019-05-06T23:33:53.448Z,5.31
2019-05-06T23:36:22.906Z,5.29
2019-05-06T23:39:28.187Z,5.26
2019-05-06T23:42:33.050Z,5.24
2019-05-06T23:45:37.972Z,5.20
2019-05-06T23:48:43.040Z,5.17
2019-05-06T23:51:47.829Z,5.15
2019-05-06T23:54:52.841Z,5.15
2019-05-06T23:57:22.885Z,5.16
2019-05-06T23:59:51.877Z,5.16
